Time;durP1;ratioP1;P1;durP2;ratioP2;P2;SDS_P1;SDS_P2;PMS_P1;PMS_P2;Temp;Humidity;BMP_temperature;BMP_pressure;BME280_temperature;BME280_humidity;BME280_pressure;Samples;Min_cycle;Max_cycle;Signal;HPM_P1;HPM_P2
2022/05/29 00:00:46;;;;;;;;;2.00;0.00;;;;;14.20;44.52;101535.13;5075642;28;46129;-43
2022/05/29 00:03:11;;;;;;;;;0.00;0.00;;;;;14.15;44.89;101532.03;5076478;28;45230;-49
2022/05/29 00:05:38;;;;;;;;;3.00;1.00;;;;;14.13;45.03;101530.50;5076030;28;45321;-46
2022/05/29 00:08:04;;;;;;;;;0.67;0.67;;;;;14.11;45.46;101527.13;5075583;28;45469;-52
2022/05/29 00:10:35;;;;;;;;;2.00;0.33;;;;;14.08;44.50;101522.94;5076479;28;45340;-52
2022/05/29 00:13:00;;;;;;;;;3.00;2.00;;;;;14.05;45.26;101522.41;5076285;28;45317;-48
2022/05/29 00:15:26;;;;;;;;;1.00;1.00;;;;;14.04;45.63;101523.41;5076435;28;45361;-48
2022/05/29 00:17:51;;;;;;;;;4.67;1.00;;;;;14.01;45.16;101518.34;5076725;28;45229;-54
2022/05/29 00:20:16;;;;;;;;;1.67;1.00;;;;;14.00;45.67;101516.66;5076078;28;46008;-54
2022/05/29 00:22:42;;;;;;;;;2.00;2.00;;;;;13.99;45.26;101523.84;5076492;28;45349;-50
2022/05/29 00:25:10;;;;;;;;;1.33;0.00;;;;;13.99;44.77;101521.16;5076139;28;45368;-41
2022/05/29 00:27:36;;;;;;;;;1.00;1.00;;;;;13.96;45.63;101521.47;5076430;27;45467;-54
2022/05/29 00:30:04;;;;;;;;;0.67;0.67;;;;;13.93;45.47;101513.72;5075110;28;45991;-49
2022/05/29 00:32:29;;;;;;;;;3.00;2.00;;;;;13.92;45.50;101518.25;5076180;28;45471;-51
2022/05/29 00:34:54;;;;;;;;;1.00;1.00;;;;;13.88;45.51;101510.66;5076602;28;45407;-42
2022/05/29 00:37:20;;;;;;;;;1.00;1.00;;;;;13.85;45.45;101518.97;5077383;27;45477;-44
2022/05/29 00:39:49;;;;;;;;;1.00;1.00;;;;;13.69;45.70;101499.09;5079537;28;46561;-42
2022/05/29 00:42:18;;;;;;;;;1.00;1.00;;;;;13.64;46.47;101485.31;5079509;27;45419;-43
2022/05/29 00:44:43;;;;;;;;;2.00;2.00;;;;;13.72;46.21;101509.47;5079513;27;45259;-45
2022/05/29 00:47:09;;;;;;;;;2.33;0.33;;;;;13.72;46.73;101508.63;5079984;28;45500;-51
2022/05/29 00:49:36;;;;;;;;;1.00;1.00;;;;;13.70;45.98;101513.31;5079319;27;46117;-44
2022/05/29 00:52:07;;;;;;;;;5.33;3.00;;;;;13.67;46.63;101506.41;5079246;28;45242;-46
2022/05/29 00:54:42;;;;;;;;;0.67;0.33;;;;;13.66;45.39;101511.91;5079578;27;45437;-48
2022/05/29 00:57:23;;;;;;;;;0.33;0.33;;;;;13.62;46.98;101511.38;5079625;27;45451;-52
2022/05/29 00:59:48;;;;;;;;;2.00;2.00;;;;;13.61;46.76;101516.84;5078272;27;46455;-44
2022/05/29 01:02:14;;;;;;;;;5.33;1.67;;;;;13.58;47.12;101518.00;5079075;28;45386;-46
2022/05/29 01:04:40;;;;;;;;;4.00;1.00;;;;;13.43;46.45;101498.91;5079457;27;45423;-43
2022/05/29 01:07:08;;;;;;;;;2.00;2.00;;;;;13.51;46.97;101506.19;5079162;27;45604;-44
2022/05/29 01:09:40;;;;;;;;;1.00;1.00;;;;;13.48;47.38;101507.34;5078841;27;46611;-44
2022/05/29 01:12:36;;;;;;;;;2.67;1.00;;;;;13.44;46.85;101500.63;5079104;28;45353;-49
2022/05/29 01:15:32;;;;;;;;;1.00;1.00;;;;;13.42;47.05;101496.38;5079054;28;45267;-48
2022/05/29 01:18:23;;;;;;;;;1.33;1.33;;;;;13.36;47.62;101492.47;5079126;27;45516;-48
2022/05/29 01:21:04;;;;;;;;;1.67;1.67;;;;;13.36;47.87;101499.66;5079182;28;45509;-44
2022/05/29 01:23:55;;;;;;;;;1.00;1.00;;;;;13.11;47.54;101461.88;5079866;27;45402;-46
2022/05/29 01:26:57;;;;;;;;;1.00;1.00;;;;;13.28;47.54;101494.22;5080621;27;45439;-53
2022/05/29 01:29:48;;;;;;;;;1.00;1.00;;;;;13.26;47.75;101490.81;5080399;28;45222;-43
2022/05/29 01:32:40;;;;;;;;;1.00;1.00;;;;;13.20;48.00;101484.22;5072221;27;45585;-44
2022/05/29 01:35:30;;;;;;;;;3.00;1.00;;;;;13.20;48.34;101482.38;5078643;27;45361;-44
2022/05/29 01:38:07;;;;;;;;;1.00;0.00;;;;;13.17;48.29;101481.81;5077875;28;45263;-45
2022/05/29 01:40:51;;;;;;;;;1.00;1.00;;;;;13.14;48.73;101480.28;5078767;28;45678;-47
2022/05/29 01:43:38;;;;;;;;;3.00;1.67;;;;;13.11;48.27;101477.06;5078434;27;45354;-43
2022/05/29 01:46:14;;;;;;;;;0.00;0.00;;;;;13.00;48.19;101470.06;5078390;27;45460;-44
2022/05/29 01:48:54;;;;;;;;;3.00;1.00;;;;;13.06;48.39;101474.84;5077514;28;45344;-50
2022/05/29 01:51:23;;;;;;;;;0.00;0.00;;;;;13.02;48.83;101476.13;5079112;27;45464;-42
2022/05/29 01:54:09;;;;;;;;;1.00;1.00;;;;;12.99;49.05;101473.72;5078107;28;46566;-48
2022/05/29 01:56:40;;;;;;;;;1.00;1.00;;;;;12.93;49.07;101467.09;5078159;28;46079;-41
2022/05/29 01:59:14;;;;;;;;;1.33;1.33;;;;;12.91;49.67;101481.63;5078429;28;45291;-51
2022/05/29 02:01:46;;;;;;;;;3.00;2.00;;;;;12.86;49.46;101470.53;5078348;28;45308;-55
2022/05/29 02:04:17;;;;;;;;;1.33;1.33;;;;;12.88;49.90;101477.38;5078142;28;46504;-47
2022/05/29 02:09:40;;;;;;;;;1.67;0.00;;;;;12.69;49.77;101453.41;5078145;28;45401;-51
2022/05/29 02:12:10;;;;;;;;;4.00;1.00;;;;;12.74;49.84;101476.03;5078474;27;45511;-46
2022/05/29 02:14:54;;;;;;;;;1.00;1.00;;;;;12.70;50.14;101471.94;5077807;27;46246;-45
2022/05/29 02:17:32;;;;;;;;;2.00;2.00;;;;;12.64;50.50;101469.88;5077980;28;45386;-47
2022/05/29 02:20:05;;;;;;;;;2.33;1.00;;;;;12.63;50.38;101476.16;5078220;28;45375;-43
2022/05/29 02:22:35;;;;;;;;;1.00;1.00;;;;;12.53;50.04;101463.81;5078503;27;45179;-42
2022/05/29 02:25:07;;;;;;;;;1.33;1.00;;;;;12.57;50.98;101475.91;5077927;28;47066;-48
2022/05/29 02:27:57;;;;;;;;;2.00;2.00;;;;;12.53;50.84;101469.16;5078151;28;45440;-45
2022/05/29 02:30:26;;;;;;;;;2.00;0.67;;;;;12.52;50.75;101471.00;5078149;27;45336;-46
2022/05/29 02:33:12;;;;;;;;;0.00;0.00;;;;;12.49;50.69;101465.94;5078119;28;45484;-45
2022/05/29 02:35:42;;;;;;;;;1.00;1.00;;;;;12.46;51.10;101461.72;5077584;27;47269;-47
2022/05/29 02:38:33;;;;;;;;;1.67;1.67;;;;;12.44;51.51;101460.19;5077941;27;45316;-46
2022/05/29 02:41:07;;;;;;;;;3.00;1.00;;;;;12.40;51.13;101454.28;5077342;28;45363;-46
2022/05/29 02:43:51;;;;;;;;;1.00;1.00;;;;;12.33;51.45;101452.31;5077734;28;45316;-45
2022/05/29 02:46:47;;;;;;;;;1.00;1.00;;;;;12.34;51.03;101448.66;5077513;28;46116;-47
2022/05/29 02:49:24;;;;;;;;;1.33;1.00;;;;;12.32;51.47;101458.63;5077556;27;45507;-50
2022/05/29 02:52:01;;;;;;;;;5.33;1.00;;;;;12.28;51.08;101451.91;5077287;28;45435;-46
2022/05/29 02:54:30;;;;;;;;;1.00;1.00;;;;;12.22;52.83;101446.16;5077632;28;45412;-45
2022/05/29 02:56:57;;;;;;;;;2.00;0.00;;;;;12.23;52.27;101450.50;5077239;27;46144;-48
2022/05/29 02:59:25;;;;;;;;;2.00;1.00;;;;;12.24;53.07;101446.84;5076539;27;45257;-48
2022/05/29 03:02:06;;;;;;;;;1.67;1.00;;;;;12.22;51.50;101442.63;5077214;28;45356;-48
2022/05/29 03:05:00;;;;;;;;;2.00;2.00;;;;;12.20;52.81;101439.25;5077328;28;45466;-52
2022/05/29 03:07:45;;;;;;;;;3.00;2.33;;;;;12.18;52.53;101446.56;5076794;27;46223;-42
2022/05/29 03:10:23;;;;;;;;;2.00;2.00;;;;;12.16;52.93;101443.19;5076618;28;45757;-45
2022/05/29 03:13:27;;;;;;;;;6.00;1.67;;;;;12.14;52.93;101443.34;5077305;27;45351;-53
2022/05/29 03:16:30;;;;;;;;;1.33;1.33;;;;;12.10;52.69;101444.59;5014638;28;45569;-46
2022/05/29 03:19:08;;;;;;;;;4.33;2.67;;;;;12.09;53.56;101442.03;5014296;28;46274;-51
2022/05/29 03:21:55;;;;;;;;;2.00;1.00;;;;;12.07;52.79;101439.53;5013940;28;45443;-43
2022/05/29 03:24:46;;;;;;;;;2.00;2.00;;;;;12.07;53.35;101441.34;5014513;28;45306;-44
2022/05/29 03:27:20;;;;;;;;;3.00;1.00;;;;;12.03;52.67;101437.28;5014751;28;45298;-46
2022/05/29 03:30:08;;;;;;;;;2.00;2.00;;;;;11.97;53.35;101422.69;5014222;28;47671;-50
2022/05/29 03:32:35;;;;;;;;;2.67;2.67;;;;;12.04;52.66;101433.63;5013925;28;45483;-42
2022/05/29 03:35:17;;;;;;;;;1.00;1.00;;;;;12.01;52.86;101432.09;5014580;28;45512;-42
2022/05/29 03:37:43;;;;;;;;;4.00;3.67;;;;;11.99;54.15;101436.72;5014604;28;45295;-42
2022/05/29 03:40:09;;;;;;;;;3.00;3.00;;;;;11.92;54.02;101417.75;5014076;28;46211;-44
2022/05/29 03:42:35;;;;;;;;;2.00;2.00;;;;;11.96;54.18;101426.31;5013401;28;45349;-42
2022/05/29 03:45:00;;;;;;;;;1.00;1.00;;;;;11.95;53.63;101433.47;5014129;28;45430;-43
2022/05/29 03:47:26;;;;;;;;;2.00;1.00;;;;;11.92;54.50;101431.09;5014643;28;45412;-44
2022/05/29 03:49:51;;;;;;;;;8.00;3.00;;;;;11.91;54.02;101431.22;5013854;28;46181;-43
2022/05/29 03:52:16;;;;;;;;;5.00;2.67;;;;;11.89;53.47;101430.53;5065462;28;45491;-45
2022/05/29 03:54:42;;;;;;;;;3.67;2.00;;;;;11.84;54.83;101430.97;5076774;28;45327;-44
2022/05/29 03:57:07;;;;;;;;;2.67;2.33;;;;;11.79;54.35;101424.31;5076898;28;45244;-47
2022/05/29 03:59:32;;;;;;;;;1.00;1.00;;;;;11.82;54.29;101432.03;5076521;28;46008;-44
2022/05/29 04:01:58;;;;;;;;;4.00;2.00;;;;;11.80;55.15;101434.84;5075777;27;45353;-50
2022/05/29 04:04:23;;;;;;;;;2.00;2.00;;;;;11.73;54.49;101415.03;5076481;27;45468;-44
2022/05/29 04:06:48;;;;;;;;;2.67;2.00;;;;;11.74;54.80;101425.56;5076813;27;45245;-46
2022/05/29 04:12:07;;;;;;;;;1.00;1.00;;;;;11.68;54.13;101415.47;5076981;28;45461;-44
2022/05/29 04:14:41;;;;;;;;;2.00;1.67;;;;;11.74;53.66;101425.56;5079844;28;45366;-52
2022/05/29 04:17:10;;;;;;;;;3.00;3.00;;;;;11.73;54.92;101426.53;5080158;27;45392;-48
2022/05/29 04:19:37;;;;;;;;;1.00;1.00;;;;;11.69;54.60;101419.81;5079573;28;46188;-54
2022/05/29 04:22:12;;;;;;;;;1.67;1.67;;;;;11.67;54.61;101415.56;5079549;27;45426;-56
2022/05/29 04:24:38;;;;;;;;;7.67;3.67;;;;;11.71;55.38;101427.66;5079928;28;45357;-55
2022/05/29 04:27:04;;;;;;;;;0.33;0.33;;;;;11.74;55.31;101430.88;5079883;27;45418;-45
2022/05/29 04:29:29;;;;;;;;;3.00;3.00;;;;;11.76;55.42;101435.25;5078067;27;45577;-48
2022/05/29 04:34:38;;;;;;;;;5.00;2.00;;;;;11.75;54.48;101426.41;5079767;27;45541;-45
2022/05/29 04:37:04;;;;;;;;;4.00;2.00;;;;;11.73;55.07;101418.56;5079817;28;45343;-46
2022/05/29 04:39:35;;;;;;;;;2.00;2.00;;;;;11.66;54.10;101405.91;5079541;28;46282;-46
2022/05/29 04:42:01;;;;;;;;;2.00;2.00;;;;;11.79;55.04;101434.97;5079551;27;45333;-42
2022/05/29 04:44:28;;;;;;;;;1.67;1.67;;;;;11.77;54.24;101427.13;5079393;27;45281;-45
2022/05/29 04:46:53;;;;;;;;;2.00;2.00;;;;;11.76;55.21;101428.09;5079475;27;45436;-45
2022/05/29 04:49:19;;;;;;;;;1.00;1.00;;;;;11.78;55.32;101427.97;5079157;27;46214;-45
2022/05/29 04:51:44;;;;;;;;;3.00;1.67;;;;;11.77;55.26;101432.44;5079446;28;45333;-46
2022/05/29 04:54:09;;;;;;;;;2.00;2.00;;;;;11.77;54.38;101432.44;5079633;27;45311;-46
2022/05/29 04:56:35;;;;;;;;;1.00;1.00;;;;;11.77;55.23;101423.63;5079721;27;45326;-43
2022/05/29 04:59:00;;;;;;;;;2.33;2.00;;;;;11.78;55.70;101426.13;5079391;28;45421;-46
2022/05/29 05:01:25;;;;;;;;;1.00;1.00;;;;;11.79;55.38;101432.31;5079267;27;45413;-45
2022/05/29 05:03:51;;;;;;;;;1.00;1.00;;;;;11.78;55.05;101425.28;5080152;28;45379;-43
2022/05/29 05:06:16;;;;;;;;;1.67;1.67;;;;;11.80;55.42;101431.31;5080284;27;45490;-44
2022/05/29 05:08:42;;;;;;;;;3.33;2.67;;;;;11.79;55.46;101427.81;5080396;27;45994;-45
2022/05/29 05:11:07;;;;;;;;;4.33;1.00;;;;;11.78;55.63;101427.97;5079300;28;45384;-45
2022/05/29 05:13:33;;;;;;;;;3.67;1.67;;;;;11.76;56.28;101427.28;5078737;27;45365;-45
2022/05/29 05:16:00;;;;;;;;;1.67;1.00;;;;;11.78;55.04;101431.47;5079728;28;45359;-43
2022/05/29 05:18:25;;;;;;;;;2.33;1.33;;;;;11.80;55.59;101431.31;5078816;28;47111;-51
2022/05/29 05:20:50;;;;;;;;;2.00;2.00;;;;;11.71;55.08;101407.19;5078506;27;45545;-52
2022/05/29 05:23:16;;;;;;;;;2.00;2.00;;;;;11.85;55.75;101427.31;5078254;27;45312;-46
2022/05/29 05:25:41;;;;;;;;;1.67;1.67;;;;;11.88;54.84;101427.03;5078452;28;45474;-44
2022/05/29 05:28:06;;;;;;;;;5.00;2.67;;;;;11.89;55.91;101431.38;5078968;27;46341;-47
2022/05/29 05:30:32;;;;;;;;;2.67;2.00;;;;;11.89;55.46;101434.03;5078972;28;45758;-51
2022/05/29 05:32:57;;;;;;;;;1.00;1.00;;;;;11.89;55.17;101430.53;5079215;28;45306;-44
2022/05/29 05:35:23;;;;;;;;;4.00;2.33;;;;;11.94;55.88;101436.28;5079712;28;45243;-45
2022/05/29 05:37:48;;;;;;;;;4.33;2.67;;;;;11.96;55.55;101435.16;5079550;28;45437;-49
2022/05/29 05:40:15;;;;;;;;;2.33;2.00;;;;;12.01;55.19;101423.22;5080328;28;45426;-48
2022/05/29 05:42:40;;;;;;;;;2.33;2.33;;;;;12.04;54.82;101434.47;5080205;28;45319;-42
2022/05/29 05:45:08;;;;;;;;;3.00;3.00;;;;;12.06;54.99;101431.69;5078791;27;45323;-46
2022/05/29 05:47:34;;;;;;;;;5.00;3.00;;;;;12.06;55.14;101435.19;5078441;27;46497;-43
2022/05/29 05:50:00;;;;;;;;;2.00;2.00;;;;;12.09;55.29;101426.88;5078263;28;45310;-49
2022/05/29 05:52:25;;;;;;;;;3.33;2.00;;;;;12.16;55.34;101429.84;5078658;28;45312;-47
2022/05/29 05:54:51;;;;;;;;;6.67;2.67;;;;;12.22;55.40;101434.63;5078845;28;45206;-44
2022/05/29 05:57:20;;;;;;;;;3.67;2.00;;;;;12.28;54.66;101430.56;5078209;27;46135;-46
2022/05/29 05:59:46;;;;;;;;;1.67;1.67;;;;;12.34;54.45;101433.47;5078447;27;45377;-46
2022/05/29 06:02:12;;;;;;;;;3.00;2.33;;;;;12.36;55.27;101426.19;5078315;28;45485;-50
2022/05/29 06:04:39;;;;;;;;;2.00;2.00;;;;;12.43;54.60;101435.31;5077493;28;45461;-46
2022/05/29 06:07:04;;;;;;;;;2.33;2.33;;;;;12.47;53.86;101435.84;5077724;27;45337;-47
2022/05/29 06:09:31;;;;;;;;;3.00;1.67;;;;;12.55;54.37;101432.50;5077926;27;45369;-46
2022/05/29 06:11:57;;;;;;;;;3.67;1.33;;;;;12.56;54.36;101424.34;5078148;28;45384;-44
2022/05/29 06:14:22;;;;;;;;;1.33;1.00;;;;;12.66;54.49;101433.19;5078331;28;45528;-44
2022/05/29 06:16:48;;;;;;;;;2.00;1.33;;;;;12.72;53.72;101429.09;5077900;28;46062;-55
2022/05/29 06:19:13;;;;;;;;;2.00;0.67;;;;;12.73;53.66;101420.94;5078112;28;45447;-46
2022/05/29 06:21:39;;;;;;;;;3.33;2.00;;;;;12.82;53.93;101423.75;5077940;27;45689;-51
2022/05/29 06:24:05;;;;;;;;;2.00;1.00;;;;;12.90;52.97;101415.84;5078246;27;45295;-51
2022/05/29 06:26:31;;;;;;;;;3.33;1.67;;;;;12.99;52.82;101415.81;5077684;28;46216;-45
2022/05/29 06:28:57;;;;;;;;;3.00;3.00;;;;;13.13;53.80;101416.31;5077698;28;45399;-46
2022/05/29 06:31:23;;;;;;;;;3.33;1.33;;;;;13.29;52.39;101416.56;5078004;27;45639;-46
2022/05/29 06:33:48;;;;;;;;;1.00;1.00;;;;;13.45;51.90;101410.56;5077769;28;45418;-49
2022/05/29 06:36:21;;;;;;;;;4.00;2.00;;;;;13.71;51.82;101414.22;5077025;28;45281;-44
2022/05/29 06:38:47;;;;;;;;;3.00;1.00;;;;;14.09;51.06;101409.56;5077822;27;45477;-44
2022/05/29 06:41:15;;;;;;;;;2.00;2.00;;;;;15.02;49.49;101419.81;5077843;28;45498;-45
2022/05/29 06:43:41;;;;;;;;;2.00;2.00;;;;;16.08;47.45;101410.28;5077899;28;45563;-46
2022/05/29 06:46:08;;;;;;;;;3.00;2.00;;;;;17.27;45.24;101411.47;5077477;28;46190;-45
2022/05/29 06:48:35;;;;;;;;;1.67;1.00;;;;;18.38;44.82;101408.47;5077619;27;45409;-46
2022/05/29 06:51:05;;;;;;;;;1.00;1.00;;;;;19.91;42.16;101403.34;5077551;28;45461;-45
2022/05/29 06:53:30;;;;;;;;;0.33;0.00;;;;;21.80;37.01;101391.50;5077894;28;45349;-44
2022/05/29 06:55:56;;;;;;;;;1.67;1.67;;;;;23.03;35.63;101402.78;5077444;28;45479;-45
2022/05/29 06:58:23;;;;;;;;;6.00;2.00;;;;;24.16;33.22;101388.66;5075831;28;45584;-41
2022/05/29 07:09:04;;;;;;;;;0.60;0.60;;;;;26.64;29.14;101387.03;5056920;28;45361;-51
2022/05/29 07:11:35;;;;;;;;;1.40;1.00;;;;;26.21;28.16;101390.91;5057129;28;45399;-43
2022/05/29 07:14:04;;;;;;;;;3.25;1.00;;;;;26.87;27.53;101389.72;5057174;28;45160;-45
2022/05/29 07:16:30;;;;;;;;;1.00;1.00;;;;;26.71;26.79;101395.91;5056855;28;47093;-51
2022/05/29 07:18:55;;;;;;;;;2.00;1.25;;;;;28.19;25.46;101395.31;5056835;28;45456;-49
2022/05/29 07:21:21;;;;;;;;;4.25;1.50;;;;;29.61;23.62;101382.84;5056940;28;45360;-46
2022/05/29 07:23:47;;;;;;;;;2.00;2.00;;;;;30.67;22.38;101382.09;5057121;28;45341;-49
2022/05/29 07:26:12;;;;;;;;;3.25;0.50;;;;;31.70;21.35;101383.38;5056818;28;45407;-45
2022/05/29 07:28:37;;;;;;;;;2.00;2.00;;;;;32.79;20.35;101378.41;5056755;28;45407;-44
2022/05/29 07:31:03;;;;;;;;;2.50;0.00;;;;;33.30;19.61;101374.66;5057356;28;45349;-44
2022/05/29 07:33:29;;;;;;;;;0.00;0.00;;;;;33.56;19.17;101369.84;5056877;28;45301;-43
2022/05/29 07:35:55;;;;;;;;;2.00;0.00;;;;;33.49;20.52;101376.47;5056506;28;45313;-49
2022/05/29 07:38:20;;;;;;;;;3.00;1.00;;;;;33.37;19.85;101378.72;5055452;28;45395;-54
2022/05/29 07:40:45;;;;;;;;;1.00;1.00;;;;;31.74;20.51;101368.00;5056570;28;45778;-54
2022/05/29 07:43:20;;;;;;;;;1.75;1.75;;;;;29.57;24.69;101378.97;5057061;28;45584;-50
2022/05/29 07:45:50;;;;;;;;;1.80;0.40;;;;;28.93;25.12;101376.78;5055114;28;46236;-50
2022/05/29 07:48:17;;;;;;;;;1.00;1.00;;;;;29.87;22.49;101369.38;5058957;28;45451;-53
2022/05/29 07:50:42;;;;;;;;;0.00;0.00;;;;;30.89;21.25;101372.91;5060186;28;45452;-50
2022/05/29 07:53:08;;;;;;;;;0.00;0.00;;;;;31.58;19.91;101366.31;5060273;28;45329;-49
2022/05/29 07:55:35;;;;;;;;;1.00;1.00;;;;;29.30;21.52;101368.78;5060386;28;45379;-52
2022/05/29 07:58:00;;;;;;;;;3.00;1.00;;;;;30.88;22.41;101376.75;5059995;28;45294;-49
2022/05/29 08:00:26;;;;;;;;;0.00;0.00;;;;;32.69;20.74;101368.22;5060245;28;45432;-52
2022/05/29 08:02:51;;;;;;;;;0.25;0.25;;;;;31.75;19.13;101364.94;5060245;28;45311;-50
2022/05/29 08:05:19;;;;;;;;;1.50;0.50;;;;;32.42;20.77;101363.06;5059818;28;45355;-51
2022/05/29 08:07:45;;;;;;;;;4.20;1.60;;;;;33.95;19.32;101351.31;5068552;28;45432;-51
2022/05/29 08:10:12;;;;;;;;;0.20;0.20;;;;;35.28;16.45;101349.91;5080347;28;45384;-49
2022/05/29 08:12:39;;;;;;;;;2.00;1.00;;;;;36.51;15.98;101337.69;5080368;27;45383;-51
2022/05/29 08:15:05;;;;;;;;;0.20;0.20;;;;;35.76;15.71;101354.47;5080033;27;46526;-53
2022/05/29 08:17:32;;;;;;;;;1.60;1.00;;;;;32.78;19.69;101350.03;5080230;27;45313;-60
2022/05/29 08:19:57;;;;;;;;;0.20;0.20;;;;;30.33;18.96;101360.47;5080002;27;45379;-54
2022/05/29 08:22:23;;;;;;;;;0.00;0.00;;;;;28.31;21.48;101366.81;5080096;27;45448;-48
2022/05/29 08:33:02;;;;;;;;;0.40;0.40;;;;;-143.57;100.00;65101.44;5080196;28;45285;-50
2022/05/29 08:35:29;;;;;;;;;3.00;0.75;;;;;-143.57;100.00;65101.44;5079931;27;46944;-48
2022/05/29 08:37:55;;;;;;;;;2.60;1.00;;;;;-143.57;100.00;65101.44;5079287;27;45469;-49
2022/05/29 08:40:21;;;;;;;;;1.00;1.00;;;;;-143.57;100.00;65101.44;5078692;27;45478;-50
2022/05/29 08:42:47;;;;;;;;;0.75;0.75;;;;;-143.57;100.00;65101.44;5075432;27;45479;-46
2022/05/29 08:45:14;;;;;;;;;1.00;1.00;;;;;-143.57;100.00;65101.44;5077574;28;46156;-47
2022/05/29 08:47:41;;;;;;;;;4.20;1.00;;;;;-143.57;100.00;65101.44;5078784;27;45318;-46
2022/05/29 08:50:12;;;;;;;;;1.75;1.75;;;;;-143.57;100.00;65101.44;5070462;28;45369;-46
2022/05/29 08:53:01;;;;;;;;;2.75;1.00;;;;;-143.57;100.00;65101.44;5079026;27;45653;-47
2022/05/29 08:55:42;;;;;;;;;2.75;2.00;;;;;-143.57;100.00;65101.44;5079004;28;45956;-51
2022/05/29 08:58:34;;;;;;;;;2.00;2.00;;;;;-143.57;100.00;65101.44;5078894;27;45446;-49
2022/05/29 09:00:59;;;;;;;;;2.00;2.00;;;;;-143.57;100.00;65101.44;5079041;27;45450;-46
2022/05/29 09:03:56;;;;;;;;;2.00;1.50;;;;;-143.57;100.00;65101.44;5079201;28;45363;-51
2022/05/29 09:06:31;;;;;;;;;2.00;1.00;;;;;-143.57;100.00;65101.44;5078844;27;46148;-49
2022/05/29 09:09:01;;;;;;;;;1.00;1.00;;;;;-143.57;100.00;65101.44;5079020;27;45428;-50
2022/05/29 09:11:38;;;;;;;;;1.00;0.00;;;;;-143.57;100.00;65101.44;5079066;27;45427;-47
2022/05/29 09:14:24;;;;;;;;;1.60;0.20;;;;;-143.57;100.00;65101.44;5079362;28;45411;-50
2022/05/29 09:17:18;;;;;;;;;0.80;0.80;;;;;-143.57;100.00;65101.44;5078757;28;46208;-52
2022/05/29 09:19:55;;;;;;;;;0.00;0.00;;;;;-143.57;100.00;65101.44;5078893;27;45214;-46
2022/05/29 09:22:35;;;;;;;;;0.80;0.00;;;;;-143.57;100.00;65101.44;5078860;27;45438;-51
2022/05/29 09:25:23;;;;;;;;;0.00;0.00;;;;;-143.57;100.00;65101.44;5078979;27;45480;-51
2022/05/29 09:27:48;;;;;;;;;0.00;0.00;;;;;-143.57;100.00;65101.44;5078738;27;46197;-45
2022/05/29 09:30:15;;;;;;;;;0.00;0.00;;;;;-143.57;100.00;65101.44;5078695;28;45378;-49
2022/05/29 09:32:49;;;;;;;;;2.00;0.60;;;;;-143.57;100.00;65101.44;5078792;27;45405;-48
2022/05/29 09:35:29;;;;;;;;;0.20;0.20;;;;;-143.57;100.00;65101.44;5077646;28;45547;-46
2022/05/29 09:37:57;;;;;;;;;0.00;0.00;;;;;-143.57;100.00;65101.44;5078576;27;46527;-44
2022/05/29 09:40:29;;;;;;;;;2.40;0.00;;;;;-143.57;100.00;65101.44;5078510;27;45370;-44
2022/05/29 09:42:55;;;;;;;;;0.40;0.40;;;;;-143.57;100.00;65101.44;5079105;27;45396;-48
2022/05/29 09:45:22;;;;;;;;;1.20;0.00;;;;;-143.57;100.00;65101.44;5078898;27;45533;-46
2022/05/29 09:50:38;;;;;;;;;0.00;0.00;;;;;-143.57;100.00;65101.44;5078552;28;45281;-45
2022/05/29 09:53:10;;;;;;;;;1.40;0.00;;;;;-143.57;100.00;65101.44;5078881;28;45430;-55
2022/05/29 09:55:37;;;;;;;;;0.00;0.00;;;;;-143.57;100.00;65101.44;5078570;27;45386;-51
2022/05/29 09:58:10;;;;;;;;;0.60;0.60;;;;;-143.57;100.00;65101.44;5078159;28;46469;-50
2022/05/29 10:00:51;;;;;;;;;0.80;0.00;;;;;-143.57;100.00;65101.44;5078637;27;45438;-48
2022/05/29 10:03:49;;;;;;;;;0.40;0.40;;;;;-143.57;100.00;65101.44;5078492;27;45382;-50
2022/05/29 10:06:17;;;;;;;;;0.00;0.00;;;;;-143.57;100.00;65101.44;5078205;27;45475;-47
2022/05/29 10:08:44;;;;;;;;;0.20;0.00;;;;;-143.57;100.00;65101.44;5077996;27;47442;-50
2022/05/29 10:11:15;;;;;;;;;0.20;0.20;;;;;-143.57;100.00;65101.44;5077068;27;45279;-48
2022/05/29 10:13:41;;;;;;;;;0.00;0.00;;;;;-143.57;100.00;65101.44;5078193;27;45510;-52
2022/05/29 10:16:08;;;;;;;;;1.00;1.00;;;;;-143.57;100.00;65101.44;5077918;27;45450;-48
2022/05/29 10:18:36;;;;;;;;;0.80;0.80;;;;;-143.57;100.00;65101.44;5077525;27;47140;-50
2022/05/29 10:21:27;;;;;;;;;2.00;0.80;;;;;-143.57;100.00;65101.44;5077738;27;45381;-47
2022/05/29 10:24:13;;;;;;;;;0.20;0.20;;;;;-143.57;100.00;65101.44;5078052;27;45427;-50
2022/05/29 10:26:39;;;;;;;;;0.20;0.20;;;;;-143.57;100.00;65101.44;5078574;27;45361;-47
2022/05/29 10:29:25;;;;;;;;;0.75;0.75;;;;;-143.57;100.00;65101.44;5077726;27;46009;-46
2022/05/29 10:31:51;;;;;;;;;1.00;1.00;;;;;-143.57;100.00;65101.44;5077894;28;45351;-46
2022/05/29 10:34:36;;;;;;;;;1.40;0.80;;;;;-143.57;100.00;65101.44;5077938;27;45291;-46
2022/05/29 10:37:35;;;;;;;;;0.60;0.60;;;;;-143.57;100.00;65101.44;5078008;27;45380;-45
2022/05/29 10:40:26;;;;;;;;;0.00;0.00;;;;;-143.57;100.00;65101.44;5077335;27;45522;-51
2022/05/29 10:42:55;;;;;;;;;0.40;0.40;;;;;-143.57;100.00;65101.44;5077419;27;45386;-50
2022/05/29 10:45:27;;;;;;;;;0.00;0.00;;;;;-143.57;100.00;65101.44;5077780;27;45438;-51
2022/05/29 10:48:08;;;;;;;;;1.40;1.00;;;;;-143.57;100.00;65101.44;5077736;27;45340;-45
2022/05/29 10:50:42;;;;;;;;;1.00;1.00;;;;;-143.57;100.00;65101.44;5077299;28;46278;-51
2022/05/29 10:53:17;;;;;;;;;0.80;0.80;;;;;-143.57;100.00;65101.44;5077010;28;45553;-50
2022/05/29 10:56:06;;;;;;;;;1.60;1.00;;;;;-143.57;100.00;65101.44;5076174;28;45339;-50
2022/05/29 10:58:45;;;;;;;;;0.00;0.00;;;;;-143.57;100.00;65101.44;5077651;28;45400;-50
2022/05/29 11:04:58;;;;;;;;;1.00;1.00;;;;;-143.57;100.00;65101.44;5076821;28;45470;-45
2022/05/29 11:07:54;;;;;;;;;3.40;2.80;;;;;-143.57;100.00;65101.44;5053949;28;45548;-48
2022/05/29 11:10:38;;;;;;;;;1.00;1.00;;;;;-143.57;100.00;65101.44;5054763;28;45485;-51
2022/05/29 11:13:22;;;;;;;;;1.00;0.60;;;;;-143.57;100.00;65101.44;5054130;28;46930;-50
2022/05/29 11:15:50;;;;;;;;;1.40;1.40;;;;;-143.57;100.00;65101.44;5054219;28;45454;-52
2022/05/29 11:18:48;;;;;;;;;0.80;0.80;;;;;-143.57;100.00;65101.44;5054186;28;45389;-51
2022/05/29 11:21:24;;;;;;;;;0.50;0.50;;;;;-143.57;100.00;65101.44;5054588;28;45539;-52
2022/05/29 11:23:52;;;;;;;;;1.50;1.00;;;;;-143.57;100.00;65101.44;5054285;28;47107;-47
2022/05/29 11:26:42;;;;;;;;;1.40;0.80;;;;;-143.57;100.00;65101.44;5054192;28;45395;-48
2022/05/29 11:29:33;;;;;;;;;1.25;1.25;;;;;-143.57;100.00;65101.44;5054622;28;45414;-49
2022/05/29 11:32:36;;;;;;;;;3.00;2.00;;;;;-143.57;100.00;65101.44;5054441;28;45476;-50
2022/05/29 11:35:11;;;;;;;;;1.00;1.00;;;;;-143.57;100.00;65101.44;5054031;28;46395;-46
2022/05/29 11:37:55;;;;;;;;;2.00;2.00;;;;;-143.57;100.00;65101.44;5054143;28;45676;-47
2022/05/29 11:40:28;;;;;;;;;1.00;1.00;;;;;-143.57;100.00;65101.44;5054372;28;45491;-53
2022/05/29 11:43:19;;;;;;;;;3.50;1.00;;;;;-143.57;100.00;65101.44;5054420;28;45369;-54
2022/05/29 11:52:17;;;;;;;;;2.50;1.75;;;;;-143.57;100.00;65101.44;5076576;28;45467;-53
2022/05/29 11:54:58;;;;;;;;;3.00;1.00;;;;;-143.57;100.00;65101.44;5076420;27;45621;-50
2022/05/29 11:57:40;;;;;;;;;3.00;1.00;;;;;-143.57;100.00;65101.44;5076232;27;47481;-51
2022/05/29 12:00:09;;;;;;;;;1.00;1.00;;;;;-143.57;100.00;65101.44;5076624;27;45443;-54
2022/05/29 12:02:53;;;;;;;;;1.00;1.00;;;;;-143.57;100.00;65101.44;5075152;28;45548;-46
2022/05/29 12:05:24;;;;;;;;;0.00;0.00;;;;;-143.57;100.00;65101.44;5076632;27;45523;-52
2022/05/29 12:08:15;;;;;;;;;1.50;1.50;;;;;-143.57;100.00;65101.44;5070551;28;47636;-51
2022/05/29 12:10:51;;;;;;;;;1.00;1.00;;;;;-143.57;100.00;65101.44;5044554;28;45625;-48
2022/05/29 12:13:22;;;;;;;;;1.00;1.00;;;;;-143.57;100.00;65101.44;5076570;28;45455;-47
2022/05/29 12:15:57;;;;;;;;;1.75;1.00;;;;;-143.57;100.00;65101.44;5077106;28;45403;-53
2022/05/29 12:18:28;;;;;;;;;3.00;2.00;;;;;-143.57;100.00;65101.44;5076567;28;46225;-53
2022/05/29 12:20:57;;;;;;;;;2.25;2.25;;;;;-143.57;100.00;65101.44;5076720;28;45267;-54